sensor_id;sensor_type;location;lat;lon;timestamp;pressure;altitude;pressure_sealevel;temperature;humidity
14204;BME280;7185;51.854;6.622;2023-04-08T00:02:15;101947.44;;;8.02;100.00
14204;BME280;7185;51.854;6.622;2023-04-08T00:04:46;101947.28;;;7.89;100.00
14204;BME280;7185;51.854;6.622;2023-04-08T00:07:18;101947.22;;;7.86;100.00
14204;BME280;7185;51.854;6.622;2023-04-08T00:09:49;101946.28;;;7.81;100.00
14204;BME280;7185;51.854;6.622;2023-04-08T00:12:22;101955.88;;;7.82;100.00
14204;BME280;7185;51.854;6.622;2023-04-08T00:14:54;101956.72;;;7.81;100.00
14204;BME280;7185;51.854;6.622;2023-04-08T00:17:25;101962.97;;;7.89;100.00
14204;BME280;7185;51.854;6.622;2023-04-08T00:19:57;101959.44;;;7.87;100.00
14204;BME280;7185;51.854;6.622;2023-04-08T00:22:29;101960.19;;;7.80;100.00
14204;BME280;7185;51.854;6.622;2023-04-08T00:25:01;101957.56;;;7.78;100.00
14204;BME280;7185;51.854;6.622;2023-04-08T00:27:37;101960.16;;;7.77;100.00
14204;BME280;7185;51.854;6.622;2023-04-08T00:30:09;101961.94;;;7.79;100.00
14204;BME280;7185;51.854;6.622;2023-04-08T00:32:40;101960.16;;;7.77;100.00
14204;BME280;7185;51.854;6.622;2023-04-08T00:35:13;101967.94;;;7.75;100.00
14204;BME280;7185;51.854;6.622;2023-04-08T00:37:44;101963.66;;;7.79;100.00
14204;BME280;7185;51.854;6.622;2023-04-08T00:40:17;101956.78;;;7.84;100.00
14204;BME280;7185;51.854;6.622;2023-04-08T00:42:50;101968.94;;;7.80;100.00
14204;BME280;7185;51.854;6.622;2023-04-08T00:45:21;101976.94;;;7.91;100.00
14204;BME280;7185;51.854;6.622;2023-04-08T00:47:53;101969.03;;;7.90;100.00
14204;BME280;7185;51.854;6.622;2023-04-08T00:50:25;101975.25;;;7.96;100.00
14204;BME280;7185;51.854;6.622;2023-04-08T00:52:56;101971.63;;;7.88;100.00
14204;BME280;7185;51.854;6.622;2023-04-08T00:55:28;101973.50;;;7.95;100.00
14204;BME280;7185;51.854;6.622;2023-04-08T00:58:01;101969.88;;;7.87;98.63
14204;BME280;7185;51.854;6.622;2023-04-08T01:00:34;101982.94;;;7.87;99.03
14204;BME280;7185;51.854;6.622;2023-04-08T01:03:12;101980.22;;;7.81;99.29
14204;BME280;7185;51.854;6.622;2023-04-08T01:05:51;101990.75;;;7.84;99.18
14204;BME280;7185;51.854;6.622;2023-04-08T01:08:28;101988.16;;;7.87;98.61
14204;BME280;7185;51.854;6.622;2023-04-08T01:11:02;101985.53;;;7.87;98.39
14204;BME280;7185;51.854;6.622;2023-04-08T01:13:38;101990.56;;;7.72;98.96
14204;BME280;7185;51.854;6.622;2023-04-08T01:16:12;101992.34;;;7.76;98.90
14204;BME280;7185;51.854;6.622;2023-04-08T01:18:47;101993.09;;;7.67;99.22
14204;BME280;7185;51.854;6.622;2023-04-08T01:21:21;101996.56;;;7.66;99.76
14204;BME280;7185;51.854;6.622;2023-04-08T01:24:04;101982.41;;;7.53;100.00
14204;BME280;7185;51.854;6.622;2023-04-08T01:26:39;101987.06;;;7.73;100.00
14204;BME280;7185;51.854;6.622;2023-04-08T01:29:11;101983.47;;;7.64;100.00
14204;BME280;7185;51.854;6.622;2023-04-08T01:31:45;101989.66;;;7.71;99.91
14204;BME280;7185;51.854;6.622;2023-04-08T01:34:19;101987.13;;;7.76;99.05
14204;BME280;7185;51.854;6.622;2023-04-08T01:36:52;101987.03;;;7.68;99.12
14204;BME280;7185;51.854;6.622;2023-04-08T01:39:26;101977.34;;;7.62;98.95
14204;BME280;7185;51.854;6.622;2023-04-08T01:42:00;101983.25;;;7.52;99.02
14204;BME280;7185;51.854;6.622;2023-04-08T01:44:34;101982.38;;;7.50;99.18
14204;BME280;7185;51.854;6.622;2023-04-08T01:47:06;101997.41;;;7.66;98.37
14204;BME280;7185;51.854;6.622;2023-04-08T01:49:40;101991.81;;;7.43;98.61
14204;BME280;7185;51.854;6.622;2023-04-08T01:52:13;101988.97;;;7.29;98.82
14204;BME280;7185;51.854;6.622;2023-04-08T01:54:47;101990.69;;;7.29;99.48
14204;BME280;7185;51.854;6.622;2023-04-08T01:57:22;101992.81;;;7.52;98.08
14204;BME280;7185;51.854;6.622;2023-04-08T01:59:56;101990.88;;;7.38;98.69
14204;BME280;7185;51.854;6.622;2023-04-08T02:02:31;101987.13;;;7.24;99.13
14204;BME280;7185;51.854;6.622;2023-04-08T02:05:05;101993.50;;;7.41;98.28
14204;BME280;7185;51.854;6.622;2023-04-08T02:07:36;101993.28;;;7.27;98.65
14204;BME280;7185;51.854;6.622;2023-04-08T02:10:09;101991.25;;;7.11;98.25
14204;BME280;7185;51.854;6.622;2023-04-08T02:12:42;101988.75;;;7.17;98.93
14204;BME280;7185;51.854;6.622;2023-04-08T02:15:14;101983.53;;;7.17;98.69
14204;BME280;7185;51.854;6.622;2023-04-08T02:17:48;101994.75;;;7.13;99.09
14204;BME280;7185;51.854;6.622;2023-04-08T02:20:22;101990.41;;;7.12;98.85
14204;BME280;7185;51.854;6.622;2023-04-08T02:22:58;101998.03;;;7.02;98.43
14204;BME280;7185;51.854;6.622;2023-04-08T02:25:34;101992.59;;;6.90;98.04
14204;BME280;7185;51.854;6.622;2023-04-08T02:28:10;101997.94;;;6.96;98.06
14204;BME280;7185;51.854;6.622;2023-04-08T02:30:43;101997.69;;;6.84;97.66
14204;BME280;7185;51.854;6.622;2023-04-08T02:33:20;101993.94;;;6.69;97.88
14204;BME280;7185;51.854;6.622;2023-04-08T02:35:53;101991.97;;;6.59;97.89
14204;BME280;7185;51.854;6.622;2023-04-08T02:38:26;102004.81;;;6.48;98.67
14204;BME280;7185;51.854;6.622;2023-04-08T02:40:59;102009.13;;;6.48;98.63
14204;BME280;7185;51.854;6.622;2023-04-08T02:43:32;102015.47;;;6.61;99.03
14204;BME280;7185;51.854;6.622;2023-04-08T02:46:04;102025.78;;;6.54;97.99
14204;BME280;7185;51.854;6.622;2023-04-08T02:48:36;102017.38;;;6.69;97.30
14204;BME280;7185;51.854;6.622;2023-04-08T02:51:08;102017.06;;;6.54;97.48
14204;BME280;7185;51.854;6.622;2023-04-08T02:53:39;102011.94;;;6.57;97.23
14204;BME280;7185;51.854;6.622;2023-04-08T02:56:11;102022.28;;;6.56;96.60
14204;BME280;7185;51.854;6.622;2023-04-08T02:58:44;102024.66;;;6.43;96.75
14204;BME280;7185;51.854;6.622;2023-04-08T03:01:15;102014.31;;;6.46;96.86
14204;BME280;7185;51.854;6.622;2023-04-08T03:03:47;102022.69;;;6.33;96.59
14204;BME280;7185;51.854;6.622;2023-04-08T03:06:19;102026.84;;;6.25;97.29
14204;BME280;7185;51.854;6.622;2023-04-08T03:08:50;102026.91;;;6.28;96.72
14204;BME280;7185;51.854;6.622;2023-04-08T03:11:22;102027.69;;;6.24;97.01
14204;BME280;7185;51.854;6.622;2023-04-08T03:13:55;102026.47;;;6.08;97.11
14204;BME280;7185;51.854;6.622;2023-04-08T03:16:26;102029.91;;;6.06;96.87
14204;BME280;7185;51.854;6.622;2023-04-08T03:18:58;102031.59;;;6.04;96.73
14204;BME280;7185;51.854;6.622;2023-04-08T03:21:29;102026.44;;;6.06;96.96
14204;BME280;7185;51.854;6.622;2023-04-08T03:24:02;102028.94;;;6.01;96.59
14204;BME280;7185;51.854;6.622;2023-04-08T03:26:34;102030.69;;;6.02;96.70
14204;BME280;7185;51.854;6.622;2023-04-08T03:29:07;102029.44;;;5.88;96.57
14204;BME280;7185;51.854;6.622;2023-04-08T03:31:39;102034.56;;;5.85;96.58
14204;BME280;7185;51.854;6.622;2023-04-08T03:34:10;102028.81;;;5.62;97.28
14204;BME280;7185;51.854;6.622;2023-04-08T03:36:42;102026.00;;;5.54;97.39
14204;BME280;7185;51.854;6.622;2023-04-08T03:39:14;102025.69;;;5.41;98.02
14204;BME280;7185;51.854;6.622;2023-04-08T03:41:45;102024.31;;;5.56;97.95
14204;BME280;7185;51.854;6.622;2023-04-08T03:44:18;102034.13;;;5.66;96.94
14204;BME280;7185;51.854;6.622;2023-04-08T03:56:14;102039.97;;;5.57;96.85
14204;BME280;7185;51.854;6.622;2023-04-08T03:58:47;102050.03;;;5.43;97.21
14204;BME280;7185;51.854;6.622;2023-04-08T04:01:20;102050.72;;;5.38;97.29
14204;BME280;7185;51.854;6.622;2023-04-08T04:03:51;102054.16;;;5.37;95.98
14204;BME280;7185;51.854;6.622;2023-04-08T04:06:23;102051.44;;;5.32;97.46
14204;BME280;7185;51.854;6.622;2023-04-08T04:08:55;102043.38;;;5.21;97.58
14204;BME280;7185;51.854;6.622;2023-04-08T04:11:26;102054.09;;;5.34;97.30
14204;BME280;7185;51.854;6.622;2023-04-08T04:13:58;102053.03;;;5.27;97.07
14204;BME280;7185;51.854;6.622;2023-04-08T04:16:31;102053.94;;;5.28;97.66
14204;BME280;7185;51.854;6.622;2023-04-08T04:19:03;102058.00;;;5.18;97.72
14204;BME280;7185;51.854;6.622;2023-04-08T04:21:34;102057.22;;;5.20;97.77
14204;BME280;7185;51.854;6.622;2023-04-08T04:24:06;102062.91;;;5.07;97.07
14204;BME280;7185;51.854;6.622;2023-04-08T04:26:39;102067.00;;;4.99;97.70
14204;BME280;7185;51.854;6.622;2023-04-08T04:29:10;102063.50;;;4.98;98.15
14204;BME280;7185;51.854;6.622;2023-04-08T04:31:43;102071.31;;;4.98;98.08
14204;BME280;7185;51.854;6.622;2023-04-08T04:34:15;102065.88;;;4.89;98.59
14204;BME280;7185;51.854;6.622;2023-04-08T04:36:47;102071.97;;;4.91;98.54
14204;BME280;7185;51.854;6.622;2023-04-08T04:39:18;102074.16;;;5.06;98.50
14204;BME280;7185;51.854;6.622;2023-04-08T04:41:50;102080.03;;;5.00;98.15
14204;BME280;7185;51.854;6.622;2023-04-08T04:44:22;102079.19;;;5.00;97.92
14204;BME280;7185;51.854;6.622;2023-04-08T04:46:54;102079.03;;;4.95;97.95
14204;BME280;7185;51.854;6.622;2023-04-08T04:49:26;102084.25;;;4.95;98.05
14204;BME280;7185;51.854;6.622;2023-04-08T04:51:58;102082.63;;;5.00;98.39
14204;BME280;7185;51.854;6.622;2023-04-08T04:54:29;102084.28;;;4.97;97.79
14204;BME280;7185;51.854;6.622;2023-04-08T04:57:01;102079.69;;;4.88;98.25
14204;BME280;7185;51.854;6.622;2023-04-08T04:59:33;102090.53;;;5.03;98.08
14204;BME280;7185;51.854;6.622;2023-04-08T05:02:06;102091.94;;;4.92;97.91
14204;BME280;7185;51.854;6.622;2023-04-08T05:04:38;102086.56;;;4.86;97.97
14204;BME280;7185;51.854;6.622;2023-04-08T05:07:09;102086.56;;;4.86;98.40
14204;BME280;7185;51.854;6.622;2023-04-08T05:09:41;102094.66;;;4.97;98.16
14204;BME280;7185;51.854;6.622;2023-04-08T05:12:12;102099.06;;;4.99;98.09
14204;BME280;7185;51.854;6.622;2023-04-08T05:14:44;102104.19;;;4.96;96.60
14204;BME280;7185;51.854;6.622;2023-04-08T05:17:17;102098.06;;;4.94;97.93
14204;BME280;7185;51.854;6.622;2023-04-08T05:19:48;102107.47;;;4.89;98.48
14204;BME280;7185;51.854;6.622;2023-04-08T05:22:21;102109.00;;;4.84;98.20
14204;BME280;7185;51.854;6.622;2023-04-08T05:24:52;102102.94;;;4.83;98.69
14204;BME280;7185;51.854;6.622;2023-04-08T05:27:24;102111.06;;;4.94;98.99
14204;BME280;7185;51.854;6.622;2023-04-08T05:29:56;102109.25;;;4.91;98.85
14204;BME280;7185;51.854;6.622;2023-04-08T05:32:29;102113.50;;;4.88;98.73
14204;BME280;7185;51.854;6.622;2023-04-08T05:35:01;102117.94;;;4.92;98.73
14204;BME280;7185;51.854;6.622;2023-04-08T05:37:33;102118.03;;;4.95;97.82
14204;BME280;7185;51.854;6.622;2023-04-08T05:40:06;102126.47;;;4.88;98.81
14204;BME280;7185;51.854;6.622;2023-04-08T05:42:37;102125.88;;;4.97;98.46
14204;BME280;7185;51.854;6.622;2023-04-08T05:45:12;102126.72;;;4.97;98.51
14204;BME280;7185;51.854;6.622;2023-04-08T05:47:45;102130.06;;;4.91;98.90
14204;BME280;7185;51.854;6.622;2023-04-08T05:50:16;102131.94;;;4.97;98.56
14204;BME280;7185;51.854;6.622;2023-04-08T05:52:48;102132.03;;;5.00;98.69
14204;BME280;7185;51.854;6.622;2023-04-08T05:55:19;102125.16;;;5.02;99.02
14204;BME280;7185;51.854;6.622;2023-04-08T05:57:51;102136.47;;;5.04;99.21
14204;BME280;7185;51.854;6.622;2023-04-08T06:00:23;102140.31;;;5.17;99.48
14204;BME280;7185;51.854;6.622;2023-04-08T06:02:56;102146.09;;;5.37;99.01
14204;BME280;7185;51.854;6.622;2023-04-08T06:05:27;102142.22;;;5.55;98.77
14204;BME280;7185;51.854;6.622;2023-04-08T06:07:59;102143.28;;;5.62;98.80
14204;BME280;7185;51.854;6.622;2023-04-08T06:10:30;102140.06;;;5.70;98.28
14204;BME280;7185;51.854;6.622;2023-04-08T06:13:02;102144.84;;;5.88;99.10
14204;BME280;7185;51.854;6.622;2023-04-08T06:15:33;102146.16;;;6.04;98.51
14204;BME280;7185;51.854;6.622;2023-04-08T06:18:06;102155.06;;;6.13;97.97
14204;BME280;7185;51.854;6.622;2023-04-08T06:20:38;102148.50;;;6.29;97.59
14204;BME280;7185;51.854;6.622;2023-04-08T06:23:09;102150.47;;;6.37;97.74
14204;BME280;7185;51.854;6.622;2023-04-08T06:25:41;102154.06;;;6.43;97.33
14204;BME280;7185;51.854;6.622;2023-04-08T06:28:13;102159.53;;;6.55;96.97
14204;BME280;7185;51.854;6.622;2023-04-08T06:30:44;102167.38;;;6.55;96.64
14204;BME280;7185;51.854;6.622;2023-04-08T06:33:17;102172.91;;;6.69;95.97
14204;BME280;7185;51.854;6.622;2023-04-08T06:35:49;102179.25;;;6.80;95.25
14204;BME280;7185;51.854;6.622;2023-04-08T06:38:21;102173.16;;;6.80;94.62
14204;BME280;7185;51.854;6.622;2023-04-08T06:43:29;102178.31;;;6.78;94.93
14204;BME280;7185;51.854;6.622;2023-04-08T06:46:05;102184.59;;;6.86;94.83
14204;BME280;7185;51.854;6.622;2023-04-08T06:48:54;102185.53;;;6.90;94.55
14204;BME280;7185;51.854;6.622;2023-04-08T06:51:33;102178.91;;;7.05;94.49
14204;BME280;7185;51.854;6.622;2023-04-08T06:54:18;102186.09;;;7.15;94.07
14204;BME280;7185;51.854;6.622;2023-04-08T06:56:53;102182.59;;;7.16;94.20
14204;BME280;7185;51.854;6.622;2023-04-08T06:59:35;102182.94;;;7.31;94.19
14204;BME280;7185;51.854;6.622;2023-04-08T07:02:15;102184.13;;;7.47;94.20
14204;BME280;7185;51.854;6.622;2023-04-08T07:05:04;102188.69;;;7.56;93.67
14204;BME280;7185;51.854;6.622;2023-04-08T07:07:42;102194.00;;;7.62;93.25
14204;BME280;7185;51.854;6.622;2023-04-08T07:10:32;102205.81;;;7.88;92.35
14204;BME280;7185;51.854;6.622;2023-04-08T07:13:18;102198.31;;;8.08;93.51
14204;BME280;7185;51.854;6.622;2023-04-08T07:15:54;102203.88;;;8.26;93.06
14204;BME280;7185;51.854;6.622;2023-04-08T07:18:26;102196.44;;;8.48;92.25
14204;BME280;7185;51.854;6.622;2023-04-08T07:21:05;102199.22;;;8.60;90.70
14204;BME280;7185;51.854;6.622;2023-04-08T07:23:39;102206.41;;;8.74;89.70
14204;BME280;7185;51.854;6.622;2023-04-08T07:26:11;102199.66;;;8.88;91.37
14204;BME280;7185;51.854;6.622;2023-04-08T07:28:49;102209.47;;;9.05;89.69
14204;BME280;7185;51.854;6.622;2023-04-08T07:31:44;102213.34;;;9.33;92.20
14204;BME280;7185;51.854;6.622;2023-04-08T07:34:22;102214.66;;;9.71;90.77
14204;BME280;7185;51.854;6.622;2023-04-08T07:40:15;102220.75;;;10.58;84.42
14204;BME280;7185;51.854;6.622;2023-04-08T07:42:50;102223.47;;;10.70;85.15
14204;BME280;7185;51.854;6.622;2023-04-08T07:45:31;102221.78;;;10.78;84.29
14204;BME280;7185;51.854;6.622;2023-04-08T07:48:15;102228.94;;;11.01;83.99
14204;BME280;7185;51.854;6.622;2023-04-08T07:54:19;102233.31;;;11.07;82.52
14204;BME280;7185;51.854;6.622;2023-04-08T08:03:26;102228.50;;;12.07;79.12
14204;BME280;7185;51.854;6.622;2023-04-08T08:06:24;102235.50;;;12.08;75.58
14204;BME280;7185;51.854;6.622;2023-04-08T08:08:57;102239.78;;;11.77;76.18
14204;BME280;7185;51.854;6.622;2023-04-08T08:11:28;102242.41;;;11.82;77.94
14204;BME280;7185;51.854;6.622;2023-04-08T08:14:00;102251.16;;;11.79;78.12
14204;BME280;7185;51.854;6.622;2023-04-08T08:16:32;102248.53;;;11.80;78.10
14204;BME280;7185;51.854;6.622;2023-04-08T08:19:04;102253.84;;;11.94;77.28
14204;BME280;7185;51.854;6.622;2023-04-08T08:21:39;102255.63;;;12.02;78.15
14204;BME280;7185;51.854;6.622;2023-04-08T08:24:11;102253.91;;;12.08;77.65
14204;BME280;7185;51.854;6.622;2023-04-08T08:26:42;102262.59;;;11.92;76.35
14204;BME280;7185;51.854;6.622;2023-04-08T08:29:16;102260.00;;;11.97;77.28
14204;BME280;7185;51.854;6.622;2023-04-08T08:31:48;102259.94;;;11.89;76.67
14204;BME280;7185;51.854;6.622;2023-04-08T08:34:19;102257.34;;;11.92;76.64
14204;BME280;7185;51.854;6.622;2023-04-08T08:36:52;102257.38;;;11.97;76.20
14204;BME280;7185;51.854;6.622;2023-04-08T08:39:24;102259.09;;;11.96;75.53
14204;BME280;7185;51.854;6.622;2023-04-08T08:41:55;102262.69;;;12.12;76.60
14204;BME280;7185;51.854;6.622;2023-04-08T08:44:28;102266.16;;;12.03;77.72
14204;BME280;7185;51.854;6.622;2023-04-08T08:47:00;102267.03;;;12.13;78.09
14204;BME280;7185;51.854;6.622;2023-04-08T08:49:31;102262.72;;;12.46;80.06
14204;BME280;7185;51.854;6.622;2023-04-08T08:52:04;102255.66;;;12.96;78.13
14204;BME280;7185;51.854;6.622;2023-04-08T08:54:37;102251.97;;;13.68;79.34
14204;BME280;7185;51.854;6.622;2023-04-08T08:57:15;102249.72;;;14.43;73.57
14204;BME280;7185;51.854;6.622;2023-04-08T08:59:48;102255.72;;;14.69;73.70
14204;BME280;7185;51.854;6.622;2023-04-08T09:02:24;102249.88;;;15.21;73.88
14204;BME280;7185;51.854;6.622;2023-04-08T09:04:58;102252.91;;;15.64;68.70
14204;BME280;7185;51.854;6.622;2023-04-08T09:07:34;102252.16;;;16.19;63.91
14204;BME280;7185;51.854;6.622;2023-04-08T09:10:07;102255.06;;;16.59;63.31
14204;BME280;7185;51.854;6.622;2023-04-08T09:12:53;102260.25;;;16.65;61.68
14204;BME280;7185;51.854;6.622;2023-04-08T09:15:25;102265.38;;;16.74;58.55
14204;BME280;7185;51.854;6.622;2023-04-08T09:17:57;102259.63;;;17.02;58.55
14204;BME280;7185;51.854;6.622;2023-04-08T09:20:28;102259.59;;;16.52;57.75
14204;BME280;7185;51.854;6.622;2023-04-08T09:23:01;102271.16;;;16.45;56.41
14204;BME280;7185;51.854;6.622;2023-04-08T09:25:33;102275.94;;;16.22;58.10
14204;BME280;7185;51.854;6.622;2023-04-08T09:28:17;102275.91;;;15.55;60.87
14204;BME280;7185;51.854;6.622;2023-04-08T09:30:49;102271.28;;;14.95;61.86
14204;BME280;7185;51.854;6.622;2023-04-08T09:33:29;102275.16;;;14.55;64.84
14204;BME280;7185;51.854;6.622;2023-04-08T09:38:34;102271.75;;;14.38;65.31
14204;BME280;7185;51.854;6.622;2023-04-08T09:41:07;102278.00;;;14.24;65.76
14204;BME280;7185;51.854;6.622;2023-04-08T09:43:41;102277.94;;;14.35;66.57
14204;BME280;7185;51.854;6.622;2023-04-08T09:46:25;102270.19;;;14.09;64.80
14204;BME280;7185;51.854;6.622;2023-04-08T09:49:04;102264.81;;;14.24;64.73
14204;BME280;7185;51.854;6.622;2023-04-08T09:51:40;102268.28;;;14.32;67.22
14204;BME280;7185;51.854;6.622;2023-04-08T09:54:18;102266.53;;;14.31;64.73
14204;BME280;7185;51.854;6.622;2023-04-08T09:56:57;102271.84;;;14.27;65.78
14204;BME280;7185;51.854;6.622;2023-04-08T09:59:34;102269.19;;;14.28;63.66
14204;BME280;7185;51.854;6.622;2023-04-08T10:02:10;102273.75;;;14.01;64.58
14204;BME280;7185;51.854;6.622;2023-04-08T10:04:47;102263.28;;;13.86;64.52
14204;BME280;7185;51.854;6.622;2023-04-08T10:07:21;102274.72;;;13.83;66.71
14204;BME280;7185;51.854;6.622;2023-04-08T10:09:54;102270.22;;;13.99;66.11
14204;BME280;7185;51.854;6.622;2023-04-08T10:12:27;102269.34;;;14.05;67.49
14204;BME280;7185;51.854;6.622;2023-04-08T10:15:26;102274.56;;;14.11;64.97
14204;BME280;7185;51.854;6.622;2023-04-08T10:18:31;102273.63;;;14.18;64.99
14204;BME280;7185;51.854;6.622;2023-04-08T10:21:03;102270.75;;;14.53;65.11
14204;BME280;7185;51.854;6.622;2023-04-08T10:23:55;102277.13;;;14.22;64.85
14204;BME280;7185;51.854;6.622;2023-04-08T10:26:31;102269.13;;;14.34;64.84
14204;BME280;7185;51.854;6.622;2023-04-08T10:29:29;102280.75;;;14.09;64.42
14204;BME280;7185;51.854;6.622;2023-04-08T10:32:01;102276.34;;;14.08;64.40
14204;BME280;7185;51.854;6.622;2023-04-08T10:34:32;102284.25;;;14.08;66.21
14204;BME280;7185;51.854;6.622;2023-04-08T10:37:04;102284.28;;;14.05;65.94
14204;BME280;7185;51.854;6.622;2023-04-08T10:39:38;102282.66;;;13.82;65.89
14204;BME280;7185;51.854;6.622;2023-04-08T10:42:11;102273.81;;;13.94;66.15
14204;BME280;7185;51.854;6.622;2023-04-08T10:44:43;102278.19;;;13.96;64.34
14204;BME280;7185;51.854;6.622;2023-04-08T10:47:24;102269.44;;;13.85;64.09
14204;BME280;7185;51.854;6.622;2023-04-08T10:49:56;102274.66;;;13.97;63.64
14204;BME280;7185;51.854;6.622;2023-04-08T10:52:28;102263.19;;;14.01;62.41
14204;BME280;7185;51.854;6.622;2023-04-08T10:54:59;102262.38;;;13.96;63.71
14204;BME280;7185;51.854;6.622;2023-04-08T10:57:32;102266.78;;;13.85;63.00
14204;BME280;7185;51.854;6.622;2023-04-08T11:00:06;102268.59;;;13.81;62.21
14204;BME280;7185;51.854;6.622;2023-04-08T11:02:40;102275.47;;;14.07;63.10
14204;BME280;7185;51.854;6.622;2023-04-08T11:05:12;102271.03;;;14.12;62.94
14204;BME280;7185;51.854;6.622;2023-04-08T11:07:44;102263.84;;;14.34;63.92
14204;BME280;7185;51.854;6.622;2023-04-08T11:10:15;102257.50;;;14.66;64.71
14204;BME280;7185;51.854;6.622;2023-04-08T11:12:48;102263.06;;;15.23;64.06
14204;BME280;7185;51.854;6.622;2023-04-08T11:15:21;102260.56;;;15.88;61.79
14204;BME280;7185;51.854;6.622;2023-04-08T11:17:52;102259.66;;;16.47;61.84
14204;BME280;7185;51.854;6.622;2023-04-08T11:20:24;102266.13;;;17.32;56.40
14204;BME280;7185;51.854;6.622;2023-04-08T11:22:56;102250.88;;;17.84;57.25
14204;BME280;7185;51.854;6.622;2023-04-08T11:25:28;102247.06;;;17.98;52.68
14204;BME280;7185;51.854;6.622;2023-04-08T11:28:01;102243.84;;;17.41;56.69
14204;BME280;7185;51.854;6.622;2023-04-08T11:30:33;102246.63;;;17.35;56.04
14204;BME280;7185;51.854;6.622;2023-04-08T11:33:06;102246.75;;;17.29;55.81
14204;BME280;7185;51.854;6.622;2023-04-08T11:35:39;102257.00;;;17.02;58.27
14204;BME280;7185;51.854;6.622;2023-04-08T11:38:11;102246.66;;;17.32;58.19
14204;BME280;7185;51.854;6.622;2023-04-08T11:40:51;102253.28;;;17.11;58.17
14204;BME280;7185;51.854;6.622;2023-04-08T11:43:25;102255.84;;;17.15;55.82
14204;BME280;7185;51.854;6.622;2023-04-08T11:45:58;102256.13;;;17.00;56.05
14204;BME280;7185;51.854;6.622;2023-04-08T11:48:30;102255.06;;;17.09;56.96
14204;BME280;7185;51.854;6.622;2023-04-08T11:51:03;102260.00;;;16.80;57.07
14204;BME280;7185;51.854;6.622;2023-04-08T11:53:35;102260.28;;;16.62;57.45
14204;BME280;7185;51.854;6.622;2023-04-08T11:56:16;102263.25;;;16.43;57.21
14204;BME280;7185;51.854;6.622;2023-04-08T11:58:50;102263.84;;;16.61;58.40
14204;BME280;7185;51.854;6.622;2023-04-08T12:01:22;102257.75;;;16.55;57.22
14204;BME280;7185;51.854;6.622;2023-04-08T12:03:58;102254.34;;;16.47;58.25
14204;BME280;7185;51.854;6.622;2023-04-08T12:06:30;102255.81;;;16.67;58.30
14204;BME280;7185;51.854;6.622;2023-04-08T12:09:02;102252.72;;;16.92;58.62
14204;BME280;7185;51.854;6.622;2023-04-08T12:11:33;102258.47;;;16.67;59.25
14204;BME280;7185;51.854;6.622;2023-04-08T12:14:06;102252.50;;;16.54;58.37
14204;BME280;7185;51.854;6.622;2023-04-08T12:16:38;102261.06;;;16.68;59.14
14204;BME280;7185;51.854;6.622;2023-04-08T12:19:10;102261.28;;;16.54;60.97
14204;BME280;7185;51.854;6.622;2023-04-08T12:21:42;102263.69;;;16.70;59.72
14204;BME280;7185;51.854;6.622;2023-04-08T12:24:13;102260.47;;;16.52;59.33
14204;BME280;7185;51.854;6.622;2023-04-08T12:26:45;102255.91;;;16.61;58.38
14204;BME280;7185;51.854;6.622;2023-04-08T12:29:18;102258.22;;;16.28;60.92
14204;BME280;7185;51.854;6.622;2023-04-08T12:31:50;102264.47;;;16.23;61.33
14204;BME280;7185;51.854;6.622;2023-04-08T12:34:22;102255.66;;;16.21;60.56
14204;BME280;7185;51.854;6.622;2023-04-08T12:36:54;102260.97;;;16.18;62.56
14204;BME280;7185;51.854;6.622;2023-04-08T12:39:27;102265.53;;;16.10;62.61
14204;BME280;7185;51.854;6.622;2023-04-08T12:41:58;102264.38;;;15.64;62.33
14204;BME280;7185;51.854;6.622;2023-04-08T12:44:31;102261.44;;;15.87;62.84
14204;BME280;7185;51.854;6.622;2023-04-08T12:47:03;102257.09;;;15.80;64.10
14204;BME280;7185;51.854;6.622;2023-04-08T12:49:34;102256.22;;;15.83;64.87
14204;BME280;7185;51.854;6.622;2023-04-08T12:52:06;102262.94;;;16.07;63.64
14204;BME280;7185;51.854;6.622;2023-04-08T12:54:38;102256.91;;;15.97;63.29
14204;BME280;7185;51.854;6.622;2023-04-08T12:57:09;102258.53;;;16.06;63.34
14204;BME280;7185;51.854;6.622;2023-04-08T12:59:43;102247.63;;;16.28;62.58
14204;BME280;7185;51.854;6.622;2023-04-08T13:02:14;102251.47;;;16.63;61.45
14204;BME280;7185;51.854;6.622;2023-04-08T13:04:46;102241.44;;;16.80;60.32
14204;BME280;7185;51.854;6.622;2023-04-08T13:07:18;102247.28;;;17.01;60.10
14204;BME280;7185;51.854;6.622;2023-04-08T13:09:50;102249.81;;;17.07;59.37
14204;BME280;7185;51.854;6.622;2023-04-08T13:12:22;102253.16;;;16.67;62.06
14204;BME280;7185;51.854;6.622;2023-04-08T13:14:54;102244.63;;;16.49;62.79
14204;BME280;7185;51.854;6.622;2023-04-08T13:17:27;102244.94;;;16.29;63.19
14204;BME280;7185;51.854;6.622;2023-04-08T13:19:59;102250.00;;;16.45;62.88
14204;BME280;7185;51.854;6.622;2023-04-08T13:22:31;102250.22;;;16.31;61.91
14204;BME280;7185;51.854;6.622;2023-04-08T13:25:03;102248.84;;;16.05;64.42
14204;BME280;7185;51.854;6.622;2023-04-08T13:27:35;102247.78;;;16.17;64.37
14204;BME280;7185;51.854;6.622;2023-04-08T13:30:10;102246.25;;;16.02;65.51
14204;BME280;7185;51.854;6.622;2023-04-08T13:32:41;102242.59;;;16.11;64.47
14204;BME280;7185;51.854;6.622;2023-04-08T13:35:13;102238.81;;;16.27;64.27
14204;BME280;7185;51.854;6.622;2023-04-08T13:37:45;102232.63;;;16.27;63.84
14204;BME280;7185;51.854;6.622;2023-04-08T13:40:16;102233.47;;;16.30;63.57
14204;BME280;7185;51.854;6.622;2023-04-08T13:42:48;102230.63;;;15.83;66.18
14204;BME280;7185;51.854;6.622;2023-04-08T13:45:21;102233.53;;;16.25;65.38
14204;BME280;7185;51.854;6.622;2023-04-08T13:47:53;102229.28;;;16.15;64.38
14204;BME280;7185;51.854;6.622;2023-04-08T13:50:24;102230.25;;;16.09;65.12
14204;BME280;7185;51.854;6.622;2023-04-08T13:52:56;102234.81;;;16.00;66.53
14204;BME280;7185;51.854;6.622;2023-04-08T13:55:27;102236.88;;;15.76;66.80
14204;BME280;7185;51.854;6.622;2023-04-08T13:57:59;102230.84;;;15.66;66.97
14204;BME280;7185;51.854;6.622;2023-04-08T14:00:32;102238.19;;;15.44;68.88
14204;BME280;7185;51.854;6.622;2023-04-08T14:03:04;102232.28;;;15.20;69.08
14204;BME280;7185;51.854;6.622;2023-04-08T14:05:36;102230.34;;;15.38;70.03
14204;BME280;7185;51.854;6.622;2023-04-08T14:08:07;102230.34;;;15.35;70.21